createdAt,value
2019-01-21T00:00:45.729Z,15.47
2019-01-21T00:06:01.141Z,15.60
2019-01-21T00:11:23.312Z,16.03
2019-01-21T00:16:45.483Z,15.30
2019-01-21T00:21:48.157Z,15.33
2019-01-21T00:27:10.450Z,16.00
2019-01-21T00:32:32.656Z,15.27
2019-01-21T00:37:54.838Z,17.27
2019-01-21T00:42:57.499Z,15.40
2019-01-21T00:48:00.155Z,15.80
2019-01-21T00:53:22.330Z,16.53
2019-01-21T00:58:44.509Z,14.80
2019-01-21T01:04:06.695Z,15.77
2019-01-21T01:09:22.126Z,14.63
2019-01-21T01:14:24.862Z,15.07
2019-01-21T01:19:47.070Z,14.90
2019-01-21T01:25:09.410Z,16.30
2019-01-21T01:30:31.613Z,15.57
2019-01-21T01:35:53.803Z,16.37
2019-01-21T01:41:15.979Z,16.30
2019-01-21T01:46:38.158Z,16.50
2019-01-21T01:52:00.965Z,15.60
2019-01-21T01:57:03.825Z,14.90
2019-01-21T02:02:26.000Z,16.13
2019-01-21T02:07:41.430Z,14.00
2019-01-21T02:13:03.943Z,16.83
2019-01-21T02:18:26.121Z,16.60
2019-01-21T02:24:30.639Z,15.00
2019-01-21T02:30:31.823Z,14.93
2019-01-21T02:36:20.605Z,15.10
2019-01-21T02:41:58.929Z,14.00
2019-01-21T02:48:00.058Z,15.10
2019-01-21T02:53:57.403Z,14.30
2019-01-21T02:59:46.053Z,15.17
2019-01-21T03:05:07.080Z,15.80
2019-01-21T03:11:02.511Z,14.10
2019-01-21T03:16:44.184Z,14.93
2019-01-21T03:22:52.342Z,14.17
2019-01-21T03:35:15.753Z,15.43
2019-01-21T03:53:30.763Z,14.00
2019-01-21T03:59:24.907Z,16.43
2019-01-21T04:05:26.244Z,14.07
2019-01-21T04:17:49.715Z,13.97
2019-01-21T04:23:50.884Z,13.57
2019-01-21T04:29:52.067Z,14.50
2019-01-21T04:35:53.278Z,14.17
2019-01-21T04:41:54.536Z,13.70
2019-01-21T04:47:55.711Z,13.70
2019-01-21T04:53:56.889Z,11.60
2019-01-21T04:59:58.104Z,13.50
2019-01-21T05:05:32.518Z,13.40
2019-01-21T05:11:40.886Z,12.50
2019-01-21T05:17:45.207Z,12.10
2019-01-21T05:23:23.884Z,12.30
2019-01-21T05:29:25.079Z,12.80
2019-01-21T05:35:26.265Z,13.20
2019-01-21T05:41:27.468Z,11.60
2019-01-21T05:47:28.642Z,11.30
2019-01-21T05:53:42.289Z,14.87
2019-01-21T05:59:43.468Z,12.90
2019-01-21T06:05:44.683Z,21.40
2019-01-21T06:11:29.350Z,13.33
2019-01-21T06:17:19.193Z,13.60
2019-01-21T06:23:20.568Z,15.73
2019-01-21T06:29:07.949Z,16.57
2019-01-21T06:35:09.137Z,15.70
2019-01-21T06:40:57.008Z,18.07
2019-01-21T06:53:20.038Z,11.73
2019-01-21T07:05:35.506Z,14.67
2019-01-21T07:11:23.239Z,12.37
2019-01-21T07:17:24.697Z,11.80
2019-01-21T07:23:25.895Z,11.83
2019-01-21T07:29:14.701Z,11.83
2019-01-21T07:35:15.867Z,11.30
2019-01-21T07:41:17.055Z,11.73
2019-01-21T07:47:18.212Z,11.20
2019-01-21T07:53:26.156Z,11.40
2019-01-21T07:59:27.325Z,12.17
2019-01-21T08:05:28.614Z,12.90
2019-01-21T08:11:31.293Z,12.07
2019-01-21T08:17:32.459Z,12.10
2019-01-21T08:23:23.943Z,13.73
2019-01-21T08:29:09.188Z,12.70
2019-01-21T08:35:10.374Z,13.30
2019-01-21T08:40:43.325Z,14.53
2019-01-21T08:46:44.519Z,13.50
2019-01-21T08:52:33.777Z,13.73
2019-01-21T08:58:35.019Z,14.63
2019-01-21T09:04:36.205Z,14.07
2019-01-21T09:10:11.208Z,17.20
2019-01-21T09:16:00.659Z,15.80
2019-01-21T09:22:01.828Z,15.70
2019-01-21T09:28:03.042Z,14.83
2019-01-21T09:34:04.212Z,14.87
2019-01-21T09:39:50.155Z,14.80
2019-01-21T09:45:54.131Z,14.47
2019-01-21T09:51:16.411Z,15.40
2019-01-21T09:56:39.064Z,15.57
2019-01-21T10:02:44.226Z,15.33
2019-01-21T10:08:19.107Z,16.17
2019-01-21T10:14:20.294Z,14.53
2019-01-21T10:20:06.132Z,15.33
2019-01-21T10:25:48.728Z,15.70
2019-01-21T10:31:49.932Z,16.00
2019-01-21T10:37:51.126Z,15.70
2019-01-21T10:43:52.337Z,14.80
2019-01-21T10:49:47.209Z,15.70
2019-01-21T10:55:36.884Z,13.87
2019-01-21T11:01:38.069Z,14.53
2019-01-21T11:07:16.004Z,14.80
2019-01-21T11:13:17.193Z,15.53
2019-01-21T11:19:01.458Z,14.53
2019-01-21T11:25:02.631Z,13.53
2019-01-21T11:31:03.865Z,15.17
2019-01-21T11:37:05.027Z,14.90
2019-01-21T11:43:06.237Z,13.80
2019-01-21T11:49:07.464Z,14.37
2019-01-21T11:54:56.554Z,15.30
2019-01-21T12:00:58.277Z,13.50
2019-01-21T12:06:24.124Z,14.23
2019-01-21T12:12:01.315Z,12.73
2019-01-21T12:18:02.530Z,13.70
2019-01-21T12:24:04.146Z,14.00
2019-01-21T12:30:05.657Z,15.20
2019-01-21T12:36:07.054Z,13.20
2019-01-21T12:42:08.290Z,12.73
2019-01-21T12:47:56.865Z,14.30
2019-01-21T12:53:58.115Z,13.53
2019-01-21T13:05:49.177Z,12.20
2019-01-21T13:11:38.379Z,14.97
2019-01-21T13:17:39.615Z,14.43
2019-01-21T13:23:40.820Z,14.43
2019-01-21T13:29:25.088Z,12.87
2019-01-21T13:35:19.321Z,12.50
2019-01-21T13:41:23.291Z,13.30
2019-01-21T13:47:24.477Z,12.70
2019-01-21T13:53:25.694Z,13.60
2019-01-21T13:59:26.873Z,12.33
2019-01-21T14:05:31.145Z,11.67
2019-01-21T14:11:31.234Z,11.07
2019-01-21T14:17:32.397Z,11.63
2019-01-21T14:23:33.602Z,10.27
2019-01-21T14:29:22.051Z,9.83
2019-01-21T14:35:23.231Z,11.97
2019-01-21T14:41:24.424Z,10.97
2019-01-21T14:47:11.118Z,9.97
2019-01-21T14:53:03.387Z,10.60
2019-01-21T14:59:04.585Z,10.30
2019-01-21T15:04:38.749Z,10.70
2019-01-21T15:10:13.205Z,10.87
2019-01-21T15:16:02.326Z,12.33
2019-01-21T15:21:48.267Z,11.13
2019-01-21T15:27:52.298Z,10.23
2019-01-21T15:33:53.577Z,10.83
2019-01-21T15:39:38.554Z,11.30
2019-01-21T15:45:25.328Z,10.20
2019-01-21T15:51:05.106Z,9.80
2019-01-21T15:56:50.175Z,10.60
2019-01-21T16:02:39.069Z,10.37
2019-01-21T16:08:06.993Z,10.47
2019-01-21T16:14:12.552Z,11.33
2019-01-21T16:19:56.012Z,10.97
2019-01-21T16:25:57.229Z,10.33
2019-01-21T16:31:33.927Z,11.00
2019-01-21T16:37:35.104Z,9.90
2019-01-21T16:42:57.293Z,12.10
2019-01-21T16:48:19.540Z,11.40
2019-01-21T16:53:41.744Z,11.03
2019-01-21T17:04:36.031Z,10.33
2019-01-21T17:09:50.920Z,10.53
2019-01-21T17:15:13.238Z,10.63
2019-01-21T17:20:18.841Z,10.20
2019-01-21T17:25:41.053Z,11.40
2019-01-21T17:31:03.270Z,11.60
2019-01-21T17:36:25.473Z,11.60
2019-01-21T17:58:13.294Z,12.23
2019-01-21T18:08:56.990Z,12.73
2019-01-21T18:14:19.165Z,12.00
2019-01-21T18:19:41.447Z,12.93
2019-01-21T18:25:04.472Z,12.90
2019-01-21T18:30:27.176Z,13.10
2019-01-21T18:35:49.366Z,13.50
2019-01-21T18:41:11.788Z,13.10
2019-01-21T18:46:34.033Z,13.90
2019-01-21T18:51:36.697Z,13.40
2019-01-21T18:56:58.880Z,14.77
2019-01-21T19:02:01.621Z,14.80
2019-01-21T19:07:17.552Z,15.13
2019-01-21T19:12:39.842Z,14.17
2019-01-21T19:18:24.776Z,13.57
2019-01-21T19:23:47.301Z,13.87
2019-01-21T19:29:09.478Z,15.10
2019-01-21T19:34:31.706Z,14.00
2019-01-21T19:39:34.393Z,14.50
2019-01-21T19:44:37.312Z,14.80
2019-01-21T19:49:39.993Z,13.77
2019-01-21T19:55:02.219Z,13.70
2019-01-21T20:00:25.696Z,13.83
2019-01-21T20:05:41.070Z,13.60
2019-01-21T20:11:03.298Z,13.47
2019-01-21T20:16:25.537Z,14.50
2019-01-21T20:21:47.741Z,13.13
2019-01-21T20:27:09.933Z,12.93
2019-01-21T20:32:32.126Z,12.10
2019-01-21T20:37:54.368Z,13.40
2019-01-21T20:43:16.542Z,12.97
2019-01-21T20:48:38.739Z,13.33
2019-01-21T20:54:02.334Z,13.40
2019-01-21T20:59:25.905Z,12.23
2019-01-21T21:04:49.311Z,13.70
2019-01-21T21:09:53.276Z,12.13
2019-01-21T21:15:17.913Z,12.70
2019-01-21T21:20:40.955Z,13.30
2019-01-21T21:26:04.674Z,12.37
2019-01-21T21:31:29.907Z,12.03
2019-01-21T21:36:52.885Z,13.10
2019-01-21T21:42:16.569Z,12.20
2019-01-21T21:47:19.396Z,12.30
2019-01-21T21:52:27.816Z,12.63
2019-01-21T21:57:26.667Z,12.13
2019-01-21T22:02:29.354Z,11.33
2019-01-21T22:07:44.499Z,13.00
2019-01-21T22:12:47.306Z,12.63
2019-01-21T22:18:09.603Z,12.00
2019-01-21T22:23:31.788Z,12.70
2019-01-21T22:28:53.987Z,13.40
2019-01-21T22:33:56.659Z,13.97
2019-01-21T22:39:18.825Z,12.07
2019-01-21T22:44:41.019Z,13.37
2019-01-21T22:50:04.252Z,14.00
2019-01-21T22:55:26.587Z,13.73
2019-01-21T23:01:27.888Z,12.57
2019-01-21T23:06:43.553Z,13.60
2019-01-21T23:12:05.748Z,15.07
2019-01-21T23:17:28.091Z,12.30
2019-01-21T23:22:50.299Z,13.43
2019-01-21T23:28:12.513Z,13.50
2019-01-21T23:33:34.713Z,13.70
2019-01-21T23:38:56.909Z,14.40
2019-01-21T23:43:59.685Z,13.10
2019-01-21T23:49:02.581Z,12.80
2019-01-21T23:54:25.204Z,14.70
2019-01-21T23:59:47.400Z,13.13
